Skip Navigation Linkwww.weather.gov 
NOAA logo - Select to go to the NOAA homepage National Weather Service
 Headquarters Office   NWS logo
NWS Office of the Chief Information Officer/Telecommunication Operations Center
 
   

Current Weather Conditions:
Monteria / Los Garzones, Colombia

(SKMR) 08-49N 075-51W 26M

Conditions at

2018.06.23 1900 UTC
Wind Calm
Visibility greater than 7 mile(s)
Sky conditions mostly cloudy
Weather Towering cumulus clouds observed
Temperature 91 F (33 C)
Heat index 106.2 F (41.2 C)
Dew Point 78 F (26 C)
Relative Humidity 66%
Pressure (altimeter) 29.77 in. Hg (1008 hPa)
ob SKMR 231900Z 00000KT 9999 BKN020 33/26 A2977 METAR SKLC 231900Z 29006KT 9999 SCT017TCU BKN090 28/25 A2982 RETS RMK TCU SE/W

24 Hour Summary

Time
EDT (UTC)
Temperature
F (C)
Dew Point
F (C)
Pressure
Inches (hPa)
Wind
MPH
Weather
Latest 3 PM (19) Jun 23 91 (33) 78 (26) 29.77 (1008) Calm
2 PM (18) Jun 23 89 (32) 78 (26) 29.8 (1009) SSW 9
1 PM (17) Jun 23 87 (31) 78 (26) 29.82 (1009) Calm
Noon (16) Jun 23 87 (31) 78 (26) 29.84 (1010) Calm
11 AM (15) Jun 23 87 (31) 78 (26) 29.84 (1010) Calm
10 AM (14) No Data
9 AM (13) No Data
8 AM (12) Jun 23 78 (26) 77 (25) 29.83 (1010) Calm haze
7 AM (11) No Data
6 AM (10) No Data
5 AM (9) No Data
4 AM (8) No Data
3 AM (7) No Data
2 AM (6) No Data
1 AM (5) No Data
Midnight (4) No Data
11 PM (3) Jun 22 80 (27) 78 (26) 29.88 (1011) Calm
10 PM (2) Jun 22 80 (27) 78 (26) 29.87 (1011) Calm
9 PM (1) Jun 22 82 (28) 78 (26) 29.83 (1010) Calm
8 PM (0) Jun 22 82 (28) 78 (26) 29.79 (1008) Calm
7 PM (23) Jun 22 86 (30) 78 (26) 29.78 (1008) NW 9
6 PM (22) Jun 22 91 (33) 78 (26) 29.79 (1008) Calm
5 PM (21) Jun 22 91 (33) 78 (26) 29.79 (1008) Calm
Oldest 4 PM (20) Jun 22 89 (32) 78 (26) 29.81 (1009) NNE 7
Time
EDT (UTC)
Temperature
F(C)
Dew Point
F(C)
Pressure
Inches(hPa)
Wind
(MPH)
Weather

The information presented here is taken from products produced by the U.S. National Weather Service and other national and international agencies




US Dept of Commerce
National Oceanic and Atmospheric Administration
National Weather Service
1325 East West Highway
Silver Spring, MD 20910
Page Author: NWS Internet Services Team
Disclaimer
Feedback
Privacy Notice
Credits